BCS3LC EDDP-LIMC
Flight info
| Callsign | BCS3LC |
|---|---|
| Flight time | 1h 23m |
| Altitude | 36000 |
| Route | NEVKO1K/08R NEVKO Q243 BAMKI Z94 KOMIB DCT TEDGO DCT SONOM/N0480F350 DCT GERSA DCT SOSON DCT DEGAD Z424 RIXUV |
| Aircraft | B77L/H-SDE1E2E3FGHIJ2J3J4J5M1RWXY/LB1D1 |
Departure
| Time | 2026-05-05 17:57 |
|---|---|
| Airport | Leipzig/Halle Airport (EDDP) |
Arrival
| Time | 2026-05-05 19:20 |
|---|---|
| Airport | Milan Malpensa International Airport (LIMC) |
| Time | Latitude | Longitude | Altitude | Speed | Heading |
|---|---|---|---|---|---|
| 2026-05-05 17:23 | 51.40856 | 12.24811 | 471 ft | 0 kts | 85° |
| 2026-05-05 17:45 | 51.40856 | 12.24804 | 471 ft | 3 kts | 86° |
| 2026-05-05 17:45 | 51.40854 | 12.24772 | 464 ft | 3 kts | 85° |
| 2026-05-05 17:46 | 51.40852 | 12.24739 | 463 ft | 3 kts | 73° |
| 2026-05-05 17:46 | 51.40844 | 12.24713 | 463 ft | 2 kts | 48° |
| 2026-05-05 17:46 | 51.40830 | 12.24691 | 464 ft | 3 kts | 32° |
| 2026-05-05 17:46 | 51.40812 | 12.24678 | 463 ft | 3 kts | 6° |
| 2026-05-05 17:47 | 51.40792 | 12.24679 | 465 ft | 3 kts | 352° |
| 2026-05-05 17:47 | 51.40780 | 12.24681 | 465 ft | 1 kts | 355° |
| 2026-05-05 17:49 | 51.40809 | 12.24677 | 464 ft | 10 kts | 355° |
| 2026-05-05 17:49 | 51.40913 | 12.24666 | 467 ft | 20 kts | 355° |
| 2026-05-05 17:50 | 51.41018 | 12.24652 | 474 ft | 7 kts | 355° |
| 2026-05-05 17:50 | 51.41067 | 12.24641 | 479 ft | 7 kts | 341° |
| 2026-05-05 17:50 | 51.41093 | 12.24563 | 472 ft | 10 kts | 278° |
| 2026-05-05 17:50 | 51.41089 | 12.24440 | 472 ft | 12 kts | 265° |
| 2026-05-05 17:51 | 51.41082 | 12.24288 | 477 ft | 15 kts | 266° |
| 2026-05-05 17:51 | 51.41073 | 12.24119 | 471 ft | 16 kts | 266° |
| 2026-05-05 17:51 | 51.41065 | 12.23934 | 479 ft | 17 kts | 265° |
| 2026-05-05 17:51 | 51.41056 | 12.23744 | 483 ft | 17 kts | 266° |
| 2026-05-05 17:52 | 51.41047 | 12.23552 | 479 ft | 18 kts | 265° |
| 2026-05-05 17:52 | 51.41037 | 12.23341 | 479 ft | 19 kts | 266° |
| 2026-05-05 17:52 | 51.41027 | 12.23118 | 477 ft | 21 kts | 265° |
| 2026-05-05 17:52 | 51.41014 | 12.22854 | 477 ft | 25 kts | 265° |
| 2026-05-05 17:53 | 51.41001 | 12.22573 | 468 ft | 19 kts | 266° |
| 2026-05-05 17:53 | 51.40999 | 12.22360 | 471 ft | 19 kts | 293° |
| 2026-05-05 17:53 | 51.41071 | 12.22222 | 468 ft | 18 kts | 272° |
| 2026-05-05 17:53 | 51.41062 | 12.22013 | 467 ft | 20 kts | 267° |
| 2026-05-05 17:54 | 51.41052 | 12.21786 | 473 ft | 21 kts | 266° |
| 2026-05-05 17:54 | 51.41040 | 12.21542 | 468 ft | 24 kts | 266° |
| 2026-05-05 17:54 | 51.41026 | 12.21258 | 462 ft | 24 kts | 265° |
| 2026-05-05 17:54 | 51.41014 | 12.20983 | 450 ft | 26 kts | 266° |
| 2026-05-05 17:55 | 51.41002 | 12.20734 | 445 ft | 24 kts | 265° |
| 2026-05-05 17:55 | 51.40998 | 12.20530 | 431 ft | 11 kts | 287° |
| 2026-05-05 17:55 | 51.41064 | 12.20487 | 434 ft | 12 kts | 13° |
| 2026-05-05 17:55 | 51.41141 | 12.20529 | 438 ft | 12 kts | 38° |
| 2026-05-05 17:56 | 51.41169 | 12.20652 | 435 ft | 10 kts | 85° |
| 2026-05-05 17:56 | 51.41179 | 12.20861 | 450 ft | 38 kts | 85° |
| 2026-05-05 17:56 | 51.41223 | 12.21793 | 470 ft | 134 kts | 85° |
| 2026-05-05 17:56 | 51.41326 | 12.23751 | 717 ft | 202 kts | 83° |
| 2026-05-05 17:57 | 51.41423 | 12.25898 | 2015 ft | 185 kts | 84° |
| 2026-05-05 17:57 | 51.41507 | 12.27914 | 2787 ft | 182 kts | 84° |
| 2026-05-05 17:57 | 51.41604 | 12.30082 | 3003 ft | 209 kts | 84° |
| 2026-05-05 17:57 | 51.41719 | 12.32549 | 3219 ft | 236 kts | 85° |
| 2026-05-05 17:58 | 51.41848 | 12.35268 | 3729 ft | 251 kts | 85° |
| 2026-05-05 17:58 | 51.41986 | 12.38084 | 4481 ft | 258 kts | 85° |
| 2026-05-05 17:58 | 51.42129 | 12.40969 | 5277 ft | 262 kts | 86° |
| 2026-05-05 17:58 | 51.42275 | 12.43917 | 5992 ft | 268 kts | 86° |
| 2026-05-05 17:59 | 51.42424 | 12.46916 | 6739 ft | 273 kts | 86° |
| 2026-05-05 17:59 | 51.42445 | 12.49961 | 7337 ft | 277 kts | 102° |
| 2026-05-05 17:59 | 51.41613 | 12.52732 | 7952 ft | 281 kts | 133° |
| 2026-05-05 17:59 | 51.40046 | 12.54560 | 8712 ft | 281 kts | 158° |
| 2026-05-05 18:00 | 51.38164 | 12.55304 | 9458 ft | 279 kts | 176° |
| 2026-05-05 18:00 | 51.36200 | 12.55522 | 10027 ft | 287 kts | 177° |
| 2026-05-05 18:00 | 51.34137 | 12.55728 | 10297 ft | 310 kts | 178° |
| 2026-05-05 18:00 | 51.31911 | 12.55947 | 10478 ft | 335 kts | 177° |
| 2026-05-05 18:01 | 51.29502 | 12.56192 | 10736 ft | 357 kts | 177° |
| 2026-05-05 18:01 | 51.26988 | 12.56459 | 11415 ft | 366 kts | 177° |
| 2026-05-05 18:01 | 51.24424 | 12.56742 | 12295 ft | 371 kts | 177° |
| 2026-05-05 18:01 | 51.21838 | 12.57031 | 13341 ft | 373 kts | 177° |
| 2026-05-05 18:02 | 51.19239 | 12.57250 | 14182 ft | 372 kts | 182° |
| 2026-05-05 18:02 | 51.16706 | 12.56375 | 14771 ft | 380 kts | 204° |
| 2026-05-05 18:02 | 51.14489 | 12.54071 | 15558 ft | 385 kts | 222° |
| 2026-05-05 18:02 | 51.12729 | 12.50830 | 16388 ft | 392 kts | 236° |
| 2026-05-05 18:03 | 51.11607 | 12.46856 | 17009 ft | 397 kts | 249° |
| 2026-05-05 18:03 | 51.10713 | 12.42639 | 17607 ft | 406 kts | 250° |
| 2026-05-05 18:03 | 51.09819 | 12.38360 | 18421 ft | 407 kts | 250° |
| 2026-05-05 18:03 | 51.08923 | 12.34088 | 19273 ft | 407 kts | 249° |
| 2026-05-05 18:04 | 51.08016 | 12.29818 | 20012 ft | 409 kts | 249° |
| 2026-05-05 18:04 | 51.07089 | 12.25515 | 20658 ft | 414 kts | 249° |
| 2026-05-05 18:04 | 51.06144 | 12.21174 | 21318 ft | 418 kts | 248° |
| 2026-05-05 18:04 | 51.05183 | 12.16791 | 21972 ft | 421 kts | 248° |
| 2026-05-05 18:05 | 51.04213 | 12.12389 | 22666 ft | 424 kts | 248° |
| 2026-05-05 18:05 | 51.03231 | 12.07953 | 23343 ft | 427 kts | 248° |
| 2026-05-05 18:05 | 51.02240 | 12.03488 | 23902 ft | 431 kts | 248° |
| 2026-05-05 18:05 | 51.01253 | 11.99047 | 24441 ft | 434 kts | 248° |
| 2026-05-05 18:06 | 51.00242 | 11.94511 | 24991 ft | 437 kts | 248° |
| 2026-05-05 18:06 | 50.99898 | 11.92972 | 25179 ft | 438 kts | 248° |
| 2026-05-05 18:06 | 50.98195 | 11.85355 | 26051 ft | 444 kts | 248° |
| 2026-05-05 18:06 | 50.97156 | 11.80717 | 26491 ft | 449 kts | 248° |
| 2026-05-05 18:07 | 50.96099 | 11.76017 | 26918 ft | 455 kts | 248° |
| 2026-05-05 18:07 | 50.95033 | 11.71283 | 27421 ft | 457 kts | 247° |
| 2026-05-05 18:07 | 50.93960 | 11.66526 | 27985 ft | 459 kts | 247° |
| 2026-05-05 18:07 | 50.92879 | 11.61750 | 28505 ft | 461 kts | 247° |
| 2026-05-05 18:08 | 50.91793 | 11.56957 | 28943 ft | 464 kts | 247° |
| 2026-05-05 18:08 | 50.90696 | 11.52129 | 29382 ft | 467 kts | 247° |
| 2026-05-05 18:08 | 50.89591 | 11.47273 | 29811 ft | 469 kts | 247° |
| 2026-05-05 18:08 | 50.88484 | 11.42416 | 30307 ft | 468 kts | 247° |
| 2026-05-05 18:09 | 50.87379 | 11.37578 | 30843 ft | 465 kts | 246° |
| 2026-05-05 18:09 | 50.86274 | 11.32774 | 31382 ft | 464 kts | 245° |
| 2026-05-05 18:09 | 50.84866 | 11.28207 | 31602 ft | 461 kts | 232° |
| 2026-05-05 18:09 | 50.82880 | 11.24199 | 31985 ft | 458 kts | 227° |
| 2026-05-05 18:10 | 50.80859 | 11.20363 | 32536 ft | 456 kts | 227° |
| 2026-05-05 18:10 | 50.78872 | 11.16468 | 32928 ft | 457 kts | 229° |
| 2026-05-05 18:10 | 50.76906 | 11.12481 | 33070 ft | 462 kts | 229° |
| 2026-05-05 18:10 | 50.74950 | 11.08459 | 33524 ft | 461 kts | 229° |
| 2026-05-05 18:11 | 50.72911 | 11.04575 | 33824 ft | 460 kts | 224° |
| 2026-05-05 18:11 | 50.68172 | 10.97885 | 33798 ft | 453 kts | 213° |
| 2026-05-05 18:12 | 50.62998 | 10.92300 | 33814 ft | 450 kts | 212° |
| 2026-05-05 18:12 | 50.57845 | 10.86683 | 33922 ft | 453 kts | 213° |
| 2026-05-05 18:12 | 50.55251 | 10.83840 | 34159 ft | 455 kts | 213° |
| 2026-05-05 18:13 | 50.53532 | 10.81959 | 34405 ft | 454 kts | 213° |
| 2026-05-05 18:13 | 50.50941 | 10.79137 | 34796 ft | 452 kts | 213° |
| 2026-05-05 18:13 | 50.48365 | 10.76351 | 35188 ft | 449 kts | 213° |
| 2026-05-05 18:13 | 50.45792 | 10.73575 | 35552 ft | 448 kts | 213° |
| 2026-05-05 18:14 | 50.43220 | 10.70801 | 35745 ft | 451 kts | 213° |
| 2026-05-05 18:14 | 50.38049 | 10.65186 | 35802 ft | 452 kts | 213° |
| 2026-05-05 18:15 | 50.32890 | 10.59596 | 35809 ft | 450 kts | 213° |
| 2026-05-05 18:15 | 50.27712 | 10.54064 | 35867 ft | 452 kts | 212° |
| 2026-05-05 18:15 | 50.25109 | 10.51291 | 36011 ft | 454 kts | 213° |
| 2026-05-05 18:16 | 50.22567 | 10.48345 | 36219 ft | 456 kts | 217° |
| 2026-05-05 18:16 | 50.20198 | 10.45046 | 36445 ft | 458 kts | 223° |
| 2026-05-05 18:16 | 50.17992 | 10.41452 | 36646 ft | 459 kts | 224° |
| 2026-05-05 18:17 | 50.13531 | 10.34210 | 36787 ft | 466 kts | 224° |
| 2026-05-05 18:17 | 50.08855 | 10.27218 | 36808 ft | 464 kts | 216° |
| 2026-05-05 18:18 | 50.03496 | 10.21698 | 36800 ft | 461 kts | 207° |
| 2026-05-05 18:18 | 49.97704 | 10.17508 | 36802 ft | 458 kts | 203° |
| 2026-05-05 18:19 | 49.91866 | 10.13528 | 36820 ft | 458 kts | 203° |
| 2026-05-05 18:19 | 49.86035 | 10.09531 | 36822 ft | 458 kts | 203° |
| 2026-05-05 18:20 | 49.80200 | 10.05509 | 36811 ft | 459 kts | 203° |
| 2026-05-05 18:20 | 49.74355 | 10.01479 | 36811 ft | 461 kts | 203° |
| 2026-05-05 18:21 | 49.68532 | 9.97474 | 36820 ft | 462 kts | 203° |
| 2026-05-05 18:21 | 49.62654 | 9.93442 | 36823 ft | 463 kts | 203° |
| 2026-05-05 18:22 | 49.56754 | 9.89407 | 36831 ft | 464 kts | 203° |
| 2026-05-05 18:22 | 49.50842 | 9.85376 | 36830 ft | 465 kts | 203° |
| 2026-05-05 18:23 | 49.44918 | 9.81346 | 36829 ft | 466 kts | 203° |
| 2026-05-05 18:23 | 49.38989 | 9.77324 | 36828 ft | 466 kts | 203° |
| 2026-05-05 18:24 | 49.33057 | 9.73309 | 36828 ft | 466 kts | 203° |
| 2026-05-05 18:24 | 49.27128 | 9.69308 | 36836 ft | 466 kts | 203° |
| 2026-05-05 18:25 | 49.21196 | 9.65316 | 36826 ft | 465 kts | 203° |
| 2026-05-05 18:25 | 49.15283 | 9.61346 | 36821 ft | 461 kts | 203° |
| 2026-05-05 18:26 | 49.09491 | 9.57467 | 36822 ft | 451 kts | 203° |
| 2026-05-05 18:26 | 49.03749 | 9.53632 | 36829 ft | 449 kts | 203° |
| 2026-05-05 18:27 | 48.98065 | 9.49845 | 36825 ft | 449 kts | 203° |
| 2026-05-05 18:27 | 48.92347 | 9.46046 | 36831 ft | 448 kts | 203° |
| 2026-05-05 18:28 | 48.83766 | 9.40360 | 36830 ft | 449 kts | 203° |
| 2026-05-05 18:28 | 48.78036 | 9.36573 | 36828 ft | 449 kts | 204° |
| 2026-05-05 18:29 | 48.72461 | 9.32294 | 36839 ft | 450 kts | 208° |
| 2026-05-05 18:29 | 48.66967 | 9.27743 | 36835 ft | 450 kts | 208° |
| 2026-05-05 18:30 | 48.61477 | 9.23174 | 36833 ft | 451 kts | 208° |
| 2026-05-05 18:30 | 48.55851 | 9.19029 | 36833 ft | 451 kts | 201° |
| 2026-05-05 18:31 | 48.49827 | 9.16394 | 36848 ft | 451 kts | 194° |
| 2026-05-05 18:31 | 48.43731 | 9.14136 | 36842 ft | 451 kts | 194° |
| 2026-05-05 18:32 | 48.37638 | 9.11857 | 36851 ft | 451 kts | 194° |
| 2026-05-05 18:32 | 48.31552 | 9.09554 | 36847 ft | 451 kts | 195° |
| 2026-05-05 18:33 | 48.25470 | 9.07249 | 36850 ft | 451 kts | 195° |
| 2026-05-05 18:33 | 48.19392 | 9.04951 | 36855 ft | 450 kts | 195° |
| 2026-05-05 18:34 | 48.13315 | 9.02659 | 36855 ft | 450 kts | 195° |
| 2026-05-05 18:34 | 48.07251 | 9.00378 | 36853 ft | 449 kts | 195° |
| 2026-05-05 18:35 | 48.01185 | 8.98102 | 36865 ft | 449 kts | 195° |
| 2026-05-05 18:35 | 47.98304 | 8.96650 | 36869 ft | 438 kts | 210° |
| 2026-05-05 18:35 | 47.95611 | 8.94467 | 36802 ft | 433 kts | 213° |
| 2026-05-05 18:36 | 47.92932 | 8.92698 | 36923 ft | 426 kts | 191° |
| 2026-05-05 18:36 | 47.89964 | 8.92495 | 36954 ft | 430 kts | 182° |
| 2026-05-05 18:36 | 47.83893 | 8.91731 | 36902 ft | 440 kts | 194° |
| 2026-05-05 18:37 | 47.77953 | 8.89449 | 36892 ft | 449 kts | 199° |
| 2026-05-05 18:37 | 47.72018 | 8.86416 | 36873 ft | 452 kts | 200° |
| 2026-05-05 18:38 | 47.66055 | 8.83458 | 36890 ft | 452 kts | 200° |
| 2026-05-05 18:38 | 47.60086 | 8.80527 | 36885 ft | 451 kts | 200° |
| 2026-05-05 18:39 | 47.54133 | 8.77606 | 36883 ft | 450 kts | 200° |
| 2026-05-05 18:39 | 47.48194 | 8.74695 | 36882 ft | 449 kts | 200° |
| 2026-05-05 18:40 | 47.42280 | 8.71801 | 36883 ft | 447 kts | 200° |
| 2026-05-05 18:40 | 47.36383 | 8.68923 | 36885 ft | 446 kts | 200° |
| 2026-05-05 18:41 | 47.30502 | 8.66059 | 36878 ft | 444 kts | 200° |
| 2026-05-05 18:41 | 47.24634 | 8.63220 | 36883 ft | 444 kts | 200° |
| 2026-05-05 18:42 | 47.18764 | 8.60386 | 36899 ft | 444 kts | 200° |
| 2026-05-05 18:42 | 47.12892 | 8.57538 | 36911 ft | 445 kts | 200° |
| 2026-05-05 18:43 | 47.07012 | 8.54859 | 36921 ft | 447 kts | 194° |
| 2026-05-05 18:43 | 47.00810 | 8.53829 | 36954 ft | 450 kts | 184° |
| 2026-05-05 18:44 | 46.94517 | 8.54432 | 36934 ft | 454 kts | 178° |
| 2026-05-05 18:44 | 46.91378 | 8.54929 | 36594 ft | 455 kts | 178° |
| 2026-05-05 18:44 | 46.88227 | 8.55425 | 36073 ft | 454 kts | 178° |
| 2026-05-05 18:45 | 46.85088 | 8.55902 | 35520 ft | 454 kts | 178° |
| 2026-05-05 18:45 | 46.81948 | 8.56367 | 34907 ft | 451 kts | 179° |
| 2026-05-05 18:45 | 46.78840 | 8.56819 | 34346 ft | 447 kts | 179° |
| 2026-05-05 18:45 | 46.75758 | 8.57261 | 33732 ft | 444 kts | 180° |
| 2026-05-05 18:46 | 46.72686 | 8.57697 | 33042 ft | 442 kts | 180° |
| 2026-05-05 18:46 | 46.69639 | 8.58128 | 32381 ft | 439 kts | 180° |
| 2026-05-05 18:46 | 46.66612 | 8.58558 | 31745 ft | 435 kts | 180° |
| 2026-05-05 18:46 | 46.63608 | 8.58985 | 31136 ft | 432 kts | 180° |
| 2026-05-05 18:47 | 46.60623 | 8.59410 | 30531 ft | 430 kts | 180° |
| 2026-05-05 18:47 | 46.57652 | 8.59835 | 29917 ft | 428 kts | 180° |
| 2026-05-05 18:47 | 46.54701 | 8.60248 | 29221 ft | 425 kts | 180° |
| 2026-05-05 18:47 | 46.51768 | 8.60658 | 28565 ft | 421 kts | 180° |
| 2026-05-05 18:48 | 46.48903 | 8.61008 | 27915 ft | 415 kts | 183° |
| 2026-05-05 18:48 | 46.46002 | 8.61029 | 27317 ft | 409 kts | 185° |
| 2026-05-05 18:48 | 46.43173 | 8.61008 | 26770 ft | 405 kts | 185° |
| 2026-05-05 18:48 | 46.40354 | 8.60987 | 26164 ft | 404 kts | 185° |
| 2026-05-05 18:49 | 46.37589 | 8.60973 | 25599 ft | 402 kts | 184° |
| 2026-05-05 18:49 | 46.34761 | 8.60972 | 25040 ft | 400 kts | 184° |
| 2026-05-05 18:49 | 46.32025 | 8.60971 | 24502 ft | 398 kts | 184° |
| 2026-05-05 18:49 | 46.29262 | 8.60968 | 23934 ft | 396 kts | 184° |
| 2026-05-05 18:50 | 46.26522 | 8.60969 | 23355 ft | 392 kts | 184° |
| 2026-05-05 18:50 | 46.23801 | 8.60974 | 22752 ft | 389 kts | 184° |
| 2026-05-05 18:50 | 46.21095 | 8.60978 | 22117 ft | 388 kts | 184° |
| 2026-05-05 18:50 | 46.18393 | 8.60981 | 21511 ft | 386 kts | 184° |
| 2026-05-05 18:51 | 46.15711 | 8.60984 | 20939 ft | 385 kts | 184° |
| 2026-05-05 18:51 | 46.13041 | 8.60990 | 20342 ft | 384 kts | 183° |
| 2026-05-05 18:51 | 46.10374 | 8.60989 | 19805 ft | 382 kts | 183° |
| 2026-05-05 18:51 | 46.07715 | 8.60987 | 19256 ft | 382 kts | 183° |
| 2026-05-05 18:52 | 46.05055 | 8.60987 | 18684 ft | 382 kts | 183° |
| 2026-05-05 18:52 | 46.02406 | 8.60989 | 18139 ft | 380 kts | 183° |
| 2026-05-05 18:52 | 45.99762 | 8.60992 | 17516 ft | 379 kts | 183° |
| 2026-05-05 18:52 | 45.97132 | 8.60994 | 16913 ft | 378 kts | 183° |
| 2026-05-05 18:53 | 45.94511 | 8.60998 | 16324 ft | 376 kts | 182° |
| 2026-05-05 18:53 | 45.91911 | 8.61037 | 15720 ft | 368 kts | 178° |
| 2026-05-05 18:53 | 45.89462 | 8.61872 | 15110 ft | 360 kts | 160° |
| 2026-05-05 18:53 | 45.87341 | 8.63679 | 14559 ft | 352 kts | 146° |
| 2026-05-05 18:54 | 45.85480 | 8.65861 | 14173 ft | 334 kts | 144° |
| 2026-05-05 18:54 | 45.83753 | 8.67920 | 13986 ft | 312 kts | 144° |
| 2026-05-05 18:54 | 45.82104 | 8.69860 | 13971 ft | 303 kts | 145° |
| 2026-05-05 18:54 | 45.80503 | 8.71721 | 13961 ft | 290 kts | 145° |
| 2026-05-05 18:55 | 45.78960 | 8.73502 | 13969 ft | 281 kts | 146° |
| 2026-05-05 18:55 | 45.77444 | 8.75243 | 13968 ft | 279 kts | 146° |
| 2026-05-05 18:55 | 45.75901 | 8.76934 | 13978 ft | 280 kts | 152° |
| 2026-05-05 18:55 | 45.74206 | 8.78315 | 13969 ft | 283 kts | 156° |
| 2026-05-05 18:56 | 45.72433 | 8.79612 | 13714 ft | 289 kts | 157° |
| 2026-05-05 18:56 | 45.70647 | 8.80921 | 13354 ft | 288 kts | 156° |
| 2026-05-05 18:56 | 45.68883 | 8.82240 | 13049 ft | 283 kts | 156° |
| 2026-05-05 18:56 | 45.67188 | 8.83531 | 12980 ft | 270 kts | 156° |
| 2026-05-05 18:57 | 45.65556 | 8.84780 | 12872 ft | 265 kts | 156° |
| 2026-05-05 18:57 | 45.63902 | 8.86042 | 12510 ft | 274 kts | 155° |
| 2026-05-05 18:57 | 45.62206 | 8.87336 | 12145 ft | 277 kts | 156° |
| 2026-05-05 18:57 | 45.60432 | 8.88238 | 11745 ft | 266 kts | 171° |
| 2026-05-05 18:58 | 45.58651 | 8.88690 | 11350 ft | 255 kts | 174° |
| 2026-05-05 18:58 | 45.56914 | 8.89090 | 10974 ft | 251 kts | 173° |
| 2026-05-05 18:58 | 45.55183 | 8.89518 | 10622 ft | 254 kts | 172° |
| 2026-05-05 18:58 | 45.53434 | 8.89973 | 10254 ft | 256 kts | 172° |
| 2026-05-05 18:59 | 45.51689 | 8.90440 | 9717 ft | 254 kts | 172° |
| 2026-05-05 18:59 | 45.49963 | 8.90905 | 9144 ft | 251 kts | 171° |
| 2026-05-05 18:59 | 45.48269 | 8.91364 | 8683 ft | 243 kts | 171° |
| 2026-05-05 18:59 | 45.46636 | 8.91808 | 8375 ft | 236 kts | 171° |
| 2026-05-05 19:00 | 45.45008 | 8.92249 | 8084 ft | 241 kts | 171° |
| 2026-05-05 19:00 | 45.43911 | 8.92546 | 7898 ft | 245 kts | 171° |
| 2026-05-05 19:00 | 45.42223 | 8.93004 | 7619 ft | 248 kts | 171° |
| 2026-05-05 19:00 | 45.40538 | 8.93462 | 7324 ft | 245 kts | 171° |
| 2026-05-05 19:01 | 45.38879 | 8.93912 | 7026 ft | 241 kts | 171° |
| 2026-05-05 19:01 | 45.37252 | 8.94354 | 6706 ft | 236 kts | 171° |
| 2026-05-05 19:01 | 45.35653 | 8.94788 | 6411 ft | 232 kts | 171° |
| 2026-05-05 19:01 | 45.34074 | 8.95215 | 6095 ft | 230 kts | 171° |
| 2026-05-05 19:02 | 45.32007 | 8.95774 | 5687 ft | 227 kts | 171° |
| 2026-05-05 19:02 | 45.30961 | 8.96057 | 5472 ft | 227 kts | 171° |
| 2026-05-05 19:02 | 45.29400 | 8.96479 | 5187 ft | 230 kts | 171° |
| 2026-05-05 19:02 | 45.27842 | 8.96903 | 5058 ft | 226 kts | 171° |
| 2026-05-05 19:03 | 45.26292 | 8.97324 | 5013 ft | 228 kts | 171° |
| 2026-05-05 19:03 | 45.24724 | 8.97749 | 5006 ft | 230 kts | 171° |
| 2026-05-05 19:03 | 45.23144 | 8.98177 | 4999 ft | 232 kts | 171° |
| 2026-05-05 19:03 | 45.21563 | 8.98605 | 4997 ft | 227 kts | 171° |
| 2026-05-05 19:04 | 45.20071 | 8.99006 | 4953 ft | 209 kts | 171° |
| 2026-05-05 19:04 | 45.18699 | 8.99374 | 5008 ft | 197 kts | 171° |
| 2026-05-05 19:04 | 45.17382 | 8.99726 | 5006 ft | 188 kts | 171° |
| 2026-05-05 19:04 | 45.16119 | 9.00064 | 4988 ft | 183 kts | 171° |
| 2026-05-05 19:05 | 45.14874 | 9.00396 | 4994 ft | 182 kts | 171° |
| 2026-05-05 19:05 | 45.13646 | 9.00724 | 4992 ft | 183 kts | 171° |
| 2026-05-05 19:05 | 45.12395 | 9.01060 | 4986 ft | 183 kts | 171° |
| 2026-05-05 19:05 | 45.11142 | 9.01396 | 4988 ft | 184 kts | 171° |
| 2026-05-05 19:06 | 45.09870 | 9.01737 | 4986 ft | 184 kts | 171° |
| 2026-05-05 19:06 | 45.08630 | 9.02069 | 4982 ft | 184 kts | 171° |
| 2026-05-05 19:06 | 45.07378 | 9.02265 | 4953 ft | 179 kts | 191° |
| 2026-05-05 19:06 | 45.06311 | 9.01448 | 4990 ft | 180 kts | 226° |
| 2026-05-05 19:07 | 45.05693 | 8.99883 | 4992 ft | 188 kts | 254° |
| 2026-05-05 19:07 | 45.05459 | 8.98060 | 5006 ft | 190 kts | 255° |
| 2026-05-05 19:07 | 45.05206 | 8.96223 | 5016 ft | 189 kts | 255° |
| 2026-05-05 19:07 | 45.04955 | 8.94391 | 5001 ft | 191 kts | 256° |
| 2026-05-05 19:08 | 45.04704 | 8.92551 | 4998 ft | 190 kts | 255° |
| 2026-05-05 19:08 | 45.04572 | 8.90703 | 4971 ft | 191 kts | 276° |
| 2026-05-05 19:08 | 45.05203 | 8.89065 | 4996 ft | 196 kts | 316° |
| 2026-05-05 19:08 | 45.06454 | 8.88249 | 5010 ft | 205 kts | 344° |
| 2026-05-05 19:09 | 45.07868 | 8.87841 | 5007 ft | 209 kts | 347° |
| 2026-05-05 19:09 | 45.09299 | 8.87470 | 4993 ft | 208 kts | 347° |
| 2026-05-05 19:09 | 45.10716 | 8.87100 | 4989 ft | 206 kts | 347° |
| 2026-05-05 19:09 | 45.12119 | 8.86729 | 4988 ft | 205 kts | 347° |
| 2026-05-05 19:10 | 45.13515 | 8.86363 | 4988 ft | 204 kts | 347° |
| 2026-05-05 19:10 | 45.14905 | 8.85992 | 5000 ft | 203 kts | 348° |
| 2026-05-05 19:10 | 45.16288 | 8.85620 | 4996 ft | 202 kts | 348° |
| 2026-05-05 19:10 | 45.17671 | 8.85246 | 4994 ft | 202 kts | 348° |
| 2026-05-05 19:11 | 45.19052 | 8.84871 | 4990 ft | 202 kts | 348° |
| 2026-05-05 19:11 | 45.20433 | 8.84496 | 4995 ft | 202 kts | 348° |
| 2026-05-05 19:11 | 45.21818 | 8.84121 | 4996 ft | 203 kts | 348° |
| 2026-05-05 19:11 | 45.23217 | 8.83889 | 4991 ft | 203 kts | 355° |
| 2026-05-05 19:12 | 45.24618 | 8.83698 | 5019 ft | 202 kts | 352° |
| 2026-05-05 19:12 | 45.26008 | 8.83422 | 5012 ft | 202 kts | 350° |
| 2026-05-05 19:12 | 45.27393 | 8.83093 | 5016 ft | 201 kts | 349° |
| 2026-05-05 19:12 | 45.28752 | 8.82745 | 5010 ft | 201 kts | 348° |
| 2026-05-05 19:13 | 45.30128 | 8.82380 | 5019 ft | 201 kts | 348° |
| 2026-05-05 19:13 | 45.31503 | 8.82009 | 5017 ft | 201 kts | 348° |
| 2026-05-05 19:13 | 45.32877 | 8.81634 | 5018 ft | 201 kts | 348° |
| 2026-05-05 19:13 | 45.34252 | 8.81259 | 5018 ft | 202 kts | 348° |
| 2026-05-05 19:14 | 45.35618 | 8.80885 | 4997 ft | 196 kts | 348° |
| 2026-05-05 19:14 | 45.36939 | 8.80525 | 4996 ft | 190 kts | 348° |
| 2026-05-05 19:14 | 45.38226 | 8.80170 | 5027 ft | 189 kts | 348° |
| 2026-05-05 19:14 | 45.39545 | 8.79809 | 5026 ft | 191 kts | 348° |
| 2026-05-05 19:15 | 45.40849 | 8.79452 | 4884 ft | 196 kts | 348° |
| 2026-05-05 19:15 | 45.42190 | 8.79084 | 4609 ft | 190 kts | 348° |
| 2026-05-05 19:15 | 45.43453 | 8.78737 | 4354 ft | 186 kts | 348° |
| 2026-05-05 19:15 | 45.44724 | 8.78389 | 4121 ft | 185 kts | 349° |
| 2026-05-05 19:16 | 45.45968 | 8.78047 | 3903 ft | 181 kts | 349° |
| 2026-05-05 19:16 | 45.47216 | 8.77704 | 3638 ft | 184 kts | 349° |
| 2026-05-05 19:16 | 45.48469 | 8.77359 | 3402 ft | 183 kts | 349° |
| 2026-05-05 19:16 | 45.49716 | 8.77016 | 3162 ft | 182 kts | 350° |
| 2026-05-05 19:17 | 45.50953 | 8.76676 | 2908 ft | 180 kts | 350° |
| 2026-05-05 19:17 | 45.52177 | 8.76339 | 2660 ft | 179 kts | 351° |
| 2026-05-05 19:17 | 45.53394 | 8.76004 | 2424 ft | 178 kts | 351° |
| 2026-05-05 19:17 | 45.54563 | 8.75682 | 2196 ft | 177 kts | 351° |
| 2026-05-05 19:18 | 45.55717 | 8.75363 | 1934 ft | 162 kts | 351° |
| 2026-05-05 19:18 | 45.56775 | 8.75072 | 1704 ft | 149 kts | 351° |
| 2026-05-05 19:18 | 45.57781 | 8.74795 | 1513 ft | 148 kts | 350° |
| 2026-05-05 19:18 | 45.58780 | 8.74519 | 1311 ft | 144 kts | 350° |
| 2026-05-05 19:19 | 45.59755 | 8.74249 | 1110 ft | 142 kts | 349° |
| 2026-05-05 19:19 | 45.60720 | 8.73985 | 934 ft | 141 kts | 349° |
| 2026-05-05 19:19 | 45.61689 | 8.73722 | 772 ft | 142 kts | 349° |
| 2026-05-05 19:19 | 45.62601 | 8.73468 | 743 ft | 122 kts | 348° |
| 2026-05-05 19:20 | 45.63280 | 8.73282 | 739 ft | 78 kts | 348° |
| 2026-05-05 19:20 | 45.63649 | 8.73137 | 742 ft | 33 kts | 329° |
| 2026-05-05 19:20 | 45.63734 | 8.73056 | 739 ft | 7 kts | 319° |
| 2026-05-05 19:20 | 45.63795 | 8.72953 | 740 ft | 28 kts | 307° |
| 2026-05-05 19:21 | 45.63892 | 8.72749 | 740 ft | 25 kts | 304° |
| 2026-05-05 19:21 | 45.63850 | 8.72596 | 740 ft | 24 kts | 164° |
| 2026-05-05 19:21 | 45.63684 | 8.72640 | 740 ft | 24 kts | 172° |
| 2026-05-05 19:21 | 45.63518 | 8.72685 | 739 ft | 24 kts | 169° |
| 2026-05-05 19:22 | 45.63405 | 8.72617 | 740 ft | 20 kts | 255° |
| 2026-05-05 19:22 | 45.63378 | 8.72422 | 740 ft | 20 kts | 256° |
| 2026-05-05 19:22 | 45.63348 | 8.72231 | 742 ft | 20 kts | 263° |
| 2026-05-05 19:22 | 45.63329 | 8.72041 | 739 ft | 18 kts | 257° |
| 2026-05-05 19:23 | 45.63228 | 8.71982 | 739 ft | 18 kts | 169° |
| 2026-05-05 19:23 | 45.63103 | 8.72016 | 741 ft | 18 kts | 169° |
| 2026-05-05 19:23 | 45.62978 | 8.72050 | 739 ft | 18 kts | 169° |
| 2026-05-05 19:23 | 45.62854 | 8.72085 | 740 ft | 18 kts | 169° |
| 2026-05-05 19:24 | 45.62729 | 8.72119 | 739 ft | 18 kts | 169° |
| 2026-05-05 19:24 | 45.62604 | 8.72153 | 740 ft | 18 kts | 169° |
| 2026-05-05 19:24 | 45.62480 | 8.72187 | 738 ft | 18 kts | 169° |
| 2026-05-05 19:24 | 45.62355 | 8.72222 | 740 ft | 18 kts | 168° |
| 2026-05-05 19:25 | 45.62231 | 8.72257 | 738 ft | 18 kts | 169° |
| 2026-05-05 19:25 | 45.62105 | 8.72276 | 742 ft | 18 kts | 186° |
| 2026-05-05 19:25 | 45.61994 | 8.72275 | 738 ft | 16 kts | 128° |
| 2026-05-05 19:25 | 45.61899 | 8.72349 | 739 ft | 16 kts | 168° |
| 2026-05-05 19:26 | 45.61785 | 8.72376 | 741 ft | 16 kts | 169° |
| 2026-05-05 19:26 | 45.61674 | 8.72412 | 741 ft | 16 kts | 168° |
| 2026-05-05 19:26 | 45.61563 | 8.72443 | 740 ft | 16 kts | 170° |
| 2026-05-05 19:26 | 45.61451 | 8.72465 | 740 ft | 16 kts | 186° |
| 2026-05-05 19:27 | 45.61394 | 8.72339 | 741 ft | 16 kts | 258° |
| 2026-05-05 19:27 | 45.61348 | 8.72201 | 738 ft | 16 kts | 197° |
| 2026-05-05 19:27 | 45.61235 | 8.72221 | 741 ft | 16 kts | 169° |
| 2026-05-05 19:27 | 45.61140 | 8.72220 | 738 ft | 12 kts | 232° |
| 2026-05-05 19:28 | 45.61085 | 8.72142 | 739 ft | 12 kts | 189° |
| 2026-05-05 19:28 | 45.61003 | 8.72157 | 739 ft | 12 kts | 169° |
| 2026-05-05 19:28 | 45.60920 | 8.72180 | 740 ft | 12 kts | 169° |
| 2026-05-05 19:28 | 45.60840 | 8.72190 | 741 ft | 8 kts | 208° |
| 2026-05-05 19:29 | 45.60822 | 8.72122 | 741 ft | 4 kts | 257° |
| 2026-05-05 19:29 | 45.60820 | 8.72106 | 741 ft | 0 kts | 258° |